Аэропорт: Кривой Рог. Кривой Рог

ICAO: UKDR

METAR:
2018/07/16 20:00
UKDR 162000Z 26001MPS CAVOK 19/15 Q1003 R36/09//70 NOSIG
METAR:
2018/07/16 18:00
TAF UKDR 161708Z 1618/1718 30003MPS 9999 BKN020 SCT025CB TX29/1712Z TN17/1703Z PROB40 
      TEMPO 1618/1621 2100 -TSRA BR BKN020CB 
      TEMPO 1700/1706 2100 BR BKN011 
      TEMPO 1709/1718 VRB10G15MPS 2100 -TSRAGR SQ BKN020CB